Time;durP1;ratioP1;P1;durP2;ratioP2;P2;SDS_P1;SDS_P2;PMS_P1;PMS_P2;Temp;Humidity;BMP_temperature;BMP_pressure;BME280_temperature;BME280_humidity;BME280_pressure;Samples;Min_cycle;Max_cycle;Signal;HPM_P1;HPM_P2
2023/06/13 00:02:04;;;;;;;1.77;1.10;;;;;;;16.37;100.00;98349.75;15278307;19;20463;-47
2023/06/13 00:07:37;;;;;;;2.55;1.20;;;;;;;16.30;100.00;98346.16;15282966;19;20018;-50
2023/06/13 00:13:04;;;;;;;2.35;1.00;;;;;;;16.17;100.00;98349.63;15279698;19;20085;-47
2023/06/13 00:18:31;;;;;;;2.33;1.23;;;;;;;16.03;100.00;98337.84;15279561;19;20376;-46
2023/06/13 00:23:57;;;;;;;3.88;1.15;;;;;;;15.86;100.00;98332.72;15283582;19;20025;-44
2023/06/13 00:29:25;;;;;;;2.97;1.30;;;;;;;15.76;100.00;98334.88;15278778;19;20020;-47
2023/06/13 00:34:50;;;;;;;4.10;1.10;;;;;;;15.73;100.00;98329.88;15274154;19;20014;-49
2023/06/13 00:40:16;;;;;;;1.73;1.20;;;;;;;15.70;100.00;98324.81;15301728;19;20019;-44
2023/06/13 00:45:43;;;;;;;2.55;1.08;;;;;;;15.69;100.00;98325.84;15304349;19;20114;-45
2023/06/13 00:51:10;;;;;;;2.17;1.20;;;;;;;15.66;100.00;98316.25;15311063;19;20351;-52
2023/06/13 00:56:37;;;;;;;2.85;1.20;;;;;;;15.64;100.00;98314.75;15308434;19;20078;-48
2023/06/13 01:02:06;;;;;;;2.78;1.20;;;;;;;15.53;100.00;98310.69;15307377;19;20014;-44
2023/06/13 01:07:34;;;;;;;1.02;0.98;;;;;;;15.41;100.00;98302.22;15300154;19;20088;-47
2023/06/13 01:13:07;;;;;;;2.03;1.05;;;;;;;15.24;100.00;98310.66;15311418;19;20094;-45
2023/06/13 01:18:37;;;;;;;1.77;1.30;;;;;;;15.07;100.00;98314.63;15300491;19;20400;-44
2023/06/13 01:24:08;;;;;;;2.05;1.27;;;;;;;14.89;100.00;98305.09;15308872;19;20726;-48
2023/06/13 01:29:37;;;;;;;2.50;1.27;;;;;;;14.77;100.00;98306.63;15304536;19;20033;-46
2023/06/13 01:35:02;;;;;;;2.25;1.38;;;;;;;14.63;100.00;98300.19;15301895;19;20018;-45
2023/06/13 01:40:29;;;;;;;2.67;1.20;;;;;;;14.47;100.00;98301.22;15298800;19;20026;-47
2023/06/13 01:45:57;;;;;;;2.35;1.40;;;;;;;14.37;100.00;98295.25;15306533;19;20039;-43
2023/06/13 01:51:30;;;;;;;2.38;1.40;;;;;;;14.25;100.00;98298.44;15291280;19;20026;-49
2023/06/13 01:56:58;;;;;;;1.33;1.23;;;;;;;14.18;100.00;98290.22;15285993;19;20566;-50
2023/06/13 02:02:26;;;;;;;1.63;1.40;;;;;;;14.09;100.00;98288.63;15291738;19;20018;-49
2023/06/13 02:07:56;;;;;;;1.83;1.33;;;;;;;14.00;100.00;98279.75;15289245;19;20031;-45
2023/06/13 02:13:22;;;;;;;2.05;1.33;;;;;;;13.93;100.00;98286.97;15298985;19;20014;-46
2023/06/13 02:18:49;;;;;;;4.53;1.45;;;;;;;13.83;100.00;98287.22;15285562;19;20086;-47
2023/06/13 02:24:15;;;;;;;1.90;1.45;;;;;;;13.69;100.00;98288.91;15290970;19;20017;-47
2023/06/13 02:29:39;;;;;;;2.72;1.40;;;;;;;13.59;100.00;98282.06;15294446;19;20105;-45
2023/06/13 02:35:09;;;;;;;1.65;1.55;;;;;;;13.50;100.00;98282.16;15290101;19;20014;-44
2023/06/13 02:40:34;;;;;;;2.75;1.50;;;;;;;13.40;100.00;98286.97;15306810;19;20003;-50
2023/06/13 02:46:00;;;;;;;1.90;1.40;;;;;;;13.34;100.00;98285.81;15340841;19;20019;-51
2023/06/13 02:51:27;;;;;;;4.45;1.50;;;;;;;13.26;100.00;98286.72;15304628;19;20022;-45
2023/06/13 02:56:52;;;;;;;3.05;1.40;;;;;;;13.22;100.00;98288.13;15288490;19;20446;-47
2023/06/13 03:02:20;;;;;;;2.53;1.33;;;;;;;13.15;100.00;98291.72;15283167;19;20480;-45
2023/06/13 03:07:48;;;;;;;3.83;1.70;;;;;;;13.05;100.00;98298.19;15276105;19;20018;-46
2023/06/13 03:13:15;;;;;;;1.73;1.20;;;;;;;12.92;100.00;98296.09;15284323;19;20022;-44
2023/06/13 03:18:41;;;;;;;1.85;1.42;;;;;;;12.78;100.00;98295.03;15271460;19;20023;-46
2023/06/13 03:24:10;;;;;;;2.42;1.50;;;;;;;12.66;100.00;98295.59;15277030;19;20038;-43
2023/06/13 03:29:35;;;;;;;1.90;1.48;;;;;;;12.57;100.00;98292.13;15284189;19;20459;-46
2023/06/13 03:35:00;;;;;;;1.92;1.50;;;;;;;12.51;100.00;98295.50;15277067;19;20472;-50
2023/06/13 03:40:28;;;;;;;1.75;1.40;;;;;;;12.48;100.00;98299.41;15279083;19;20014;-51
2023/06/13 03:45:53;;;;;;;2.17;1.60;;;;;;;12.45;100.00;98310.56;15277539;19;20042;-46
2023/06/13 03:51:18;;;;;;;1.70;1.60;;;;;;;12.42;100.00;98308.22;15274918;19;20049;-46
2023/06/13 03:56:45;;;;;;;2.60;1.55;;;;;;;12.40;100.00;98310.28;15272098;19;20035;-48
2023/06/13 04:02:13;;;;;;;3.63;1.40;;;;;;;12.35;100.00;98315.34;15279301;19;20014;-46
2023/06/13 04:07:38;;;;;;;5.22;1.45;;;;;;;12.34;100.00;98311.81;15278417;19;20018;-44
2023/06/13 04:13:07;;;;;;;2.42;1.50;;;;;;;12.38;100.00;98306.91;15278681;19;20029;-43
2023/06/13 04:18:33;;;;;;;2.75;1.80;;;;;;;12.41;100.00;98314.63;15276260;19;20025;-41
2023/06/13 04:23:59;;;;;;;1.92;1.58;;;;;;;12.43;100.00;98315.31;15275796;19;20077;-43
2023/06/13 04:29:28;;;;;;;1.50;1.40;;;;;;;12.48;100.00;98318.34;15269582;19;20027;-43
2023/06/13 04:34:55;;;;;;;2.03;1.45;;;;;;;12.52;100.00;98308.88;15273975;19;20038;-43
2023/06/13 04:40:21;;;;;;;3.97;1.55;;;;;;;12.63;100.00;98313.00;15275936;19;20363;-43
2023/06/13 04:45:53;;;;;;;5.90;1.65;;;;;;;12.74;100.00;98306.38;15276491;19;20501;-43
2023/06/13 04:51:20;;;;;;;3.88;1.58;;;;;;;12.85;100.00;98303.25;15273384;19;20550;-43
2023/06/13 04:56:45;;;;;;;2.35;1.40;;;;;;;12.99;100.00;98309.75;15273656;19;20038;-44
2023/06/13 05:02:14;;;;;;;4.20;1.80;;;;;;;13.08;100.00;98302.44;15270436;19;20022;-45
2023/06/13 05:07:42;;;;;;;2.13;1.80;;;;;;;13.13;100.00;98304.59;15267387;19;20033;-44
2023/06/13 05:13:08;;;;;;;3.95;1.73;;;;;;;13.20;100.00;98301.00;15277954;19;20475;-45
2023/06/13 05:18:40;;;;;;;2.85;1.65;;;;;;;13.29;100.00;98306.31;15273726;19;20090;-42
2023/06/13 05:24:07;;;;;;;4.18;1.63;;;;;;;13.36;100.00;98300.00;15271911;19;20042;-41
2023/06/13 05:29:33;;;;;;;2.67;1.80;;;;;;;13.47;100.00;98301.44;15285663;19;20042;-42
2023/06/13 05:35:00;;;;;;;3.78;1.80;;;;;;;13.56;100.00;98299.50;15287101;19;20021;-44
2023/06/13 05:40:25;;;;;;;2.70;1.80;;;;;;;13.68;100.00;98291.81;15292033;19;20014;-45
2023/06/13 05:45:49;;;;;;;4.07;1.80;;;;;;;13.77;100.00;98290.69;15289939;19;20018;-48
2023/06/13 05:51:18;;;;;;;3.55;1.73;;;;;;;13.94;100.00;98287.78;15291081;19;20018;-46
2023/06/13 05:56:42;;;;;;;2.97;1.67;;;;;;;14.07;100.00;98282.56;15280133;19;20026;-41
2023/06/13 06:02:09;;;;;;;6.85;1.77;;;;;;;14.26;100.00;98283.03;15288238;19;20025;-48
2023/06/13 06:07:36;;;;;;;3.80;1.50;;;;;;;14.42;100.00;98269.25;15279772;19;20380;-42
2023/06/13 06:13:01;;;;;;;3.67;1.40;;;;;;;14.60;100.00;98279.69;15291410;19;20086;-42
2023/06/13 06:18:25;;;;;;;2.88;1.60;;;;;;;14.77;100.00;98283.03;15284730;19;20081;-45
2023/06/13 06:23:53;;;;;;;2.75;1.67;;;;;;;14.92;100.00;98277.59;15289882;19;20022;-43
2023/06/13 06:29:17;;;;;;;3.47;1.60;;;;;;;15.08;100.00;98281.91;15278363;19;20078;-42
2023/06/13 06:34:42;;;;;;;1.70;1.40;;;;;;;15.31;100.00;98274.56;15285434;19;20019;-43
2023/06/13 06:40:10;;;;;;;2.45;1.30;;;;;;;15.54;100.00;98279.78;15276976;19;20364;-43
2023/06/13 06:45:35;;;;;;;3.08;1.70;;;;;;;15.76;100.00;98277.84;15284876;19;20014;-45
2023/06/13 06:50:59;;;;;;;1.73;1.40;;;;;;;15.97;100.00;98276.97;15284466;19;20035;-46
2023/06/13 06:56:27;;;;;;;3.90;1.50;;;;;;;16.20;100.00;98273.13;15283261;19;20417;-44
2023/06/13 07:01:51;;;;;;;4.68;1.40;;;;;;;16.45;100.00;98270.75;15277968;19;20097;-49
2023/06/13 07:07:22;;;;;;;5.20;1.33;;;;;;;16.73;100.00;98274.41;15281401;19;20690;-46
2023/06/13 07:12:50;;;;;;;5.25;1.48;;;;;;;17.02;100.00;98275.09;15278637;19;20003;-42
2023/06/13 07:18:14;;;;;;;4.43;1.40;;;;;;;17.31;100.00;98273.88;15276251;19;20011;-43
2023/06/13 07:23:40;;;;;;;1.52;1.08;;;;;;;17.62;100.00;98274.31;15284837;19;20010;-45
2023/06/13 07:29:26;;;;;;;2.10;1.40;;;;;;;17.92;100.00;98265.69;15279877;19;20022;-42
2023/06/13 07:34:51;;;;;;;4.00;1.20;;;;;;;18.21;100.00;98274.44;15272700;19;20014;-45
2023/06/13 07:40:24;;;;;;;1.55;1.00;;;;;;;18.52;100.00;98270.16;15279143;19;20018;-43
2023/06/13 07:45:52;;;;;;;5.05;1.20;;;;;;;18.86;100.00;98262.63;15275032;19;21313;-51
2023/06/13 07:51:17;;;;;;;3.70;1.00;;;;;;;19.13;93.26;98268.78;15280624;19;20033;-43
2023/06/13 07:56:44;;;;;;;2.55;1.00;;;;;;;19.42;89.85;98260.16;15279318;19;20093;-46
2023/06/13 08:02:12;;;;;;;1.83;1.00;;;;;;;19.66;86.80;98253.84;15249255;19;20013;-43
2023/06/13 08:07:37;;;;;;;3.50;1.02;;;;;;;19.89;75.30;98255.13;15271637;19;20011;-42
2023/06/13 08:13:01;;;;;;;3.22;1.00;;;;;;;20.01;75.13;98253.31;15279491;19;20038;-46
2023/06/13 08:18:30;;;;;;;2.45;1.13;;;;;;;20.25;72.11;98253.47;15269792;19;20014;-41
2023/06/13 08:23:55;;;;;;;3.35;1.23;;;;;;;20.46;73.03;98251.31;15279915;19;20097;-47
2023/06/13 08:29:20;;;;;;;2.00;0.93;;;;;;;20.58;71.94;98249.50;15274560;19;20015;-46
2023/06/13 08:34:48;;;;;;;4.10;1.27;;;;;;;20.73;66.72;98249.06;15279740;19;20022;-47
2023/06/13 08:40:17;;;;;;;2.70;0.90;;;;;;;20.87;64.54;98251.66;15268797;19;20512;-42
2023/06/13 08:45:42;;;;;;;2.53;0.90;;;;;;;21.05;56.93;98245.28;15276183;19;20086;-46
2023/06/13 08:51:16;;;;;;;2.15;1.00;;;;;;;21.17;50.54;98248.88;15272857;19;20683;-42
2023/06/13 08:56:43;;;;;;;1.73;0.90;;;;;;;21.40;51.59;98241.78;15275106;19;20012;-42
2023/06/13 09:02:09;;;;;;;4.53;1.00;;;;;;;21.67;46.42;98241.38;15296125;19;20017;-45
2023/06/13 09:07:36;;;;;;;4.80;1.10;;;;;;;21.80;46.93;98241.13;15290725;19;20733;-43
2023/06/13 09:13:01;;;;;;;5.72;0.95;;;;;;;21.93;42.41;98228.25;15287329;19;20018;-45
2023/06/13 09:18:28;;;;;;;3.38;1.27;;;;;;;22.00;43.24;98228.94;15286673;19;20447;-47
2023/06/13 09:23:57;;;;;;;3.17;1.17;;;;;;;22.11;41.27;98227.28;15290573;19;20026;-45
2023/06/13 09:29:21;;;;;;;1.25;1.02;;;;;;;22.23;41.21;98222.56;15285236;19;20021;-46
2023/06/13 09:34:51;;;;;;;1.45;1.00;;;;;;;22.32;43.11;98221.13;15290233;19;20459;-56
2023/06/13 09:40:21;;;;;;;2.67;0.98;;;;;;;22.53;42.66;98217.97;15286559;19;20014;-46
2023/06/13 09:45:46;;;;;;;2.70;0.88;;;;;;;22.59;39.88;98220.56;15281223;19;20383;-46
2023/06/13 09:51:13;;;;;;;2.35;1.02;;;;;;;22.63;41.11;98208.03;15284170;19;20025;-44
2023/06/13 09:56:43;;;;;;;5.40;1.10;;;;;;;22.72;40.56;98207.63;14777010;19;10000746;-44
2023/06/13 10:02:01;;;;;;;1.50;0.90;;;;;;;22.94;43.81;98205.03;15289212;19;20021;-46
2023/06/13 10:07:32;;;;;;;1.52;1.00;;;;;;;23.05;44.11;98209.59;15279959;19;20019;-50
2023/06/13 10:13:03;;;;;;;2.33;0.90;;;;;;;23.31;44.67;98187.25;15286699;19;20024;-46
2023/06/13 10:18:29;;;;;;;3.53;1.10;;;;;;;23.47;43.03;98196.56;15273775;19;20015;-45
2023/06/13 10:23:57;;;;;;;2.25;1.00;;;;;;;23.48;40.40;98196.31;15275788;19;20021;-47
2023/06/13 10:29:53;;;;;;;4.72;1.10;;;;;;;23.57;39.62;98188.50;15275199;19;20662;-49
2023/06/13 10:35:37;;;;;;;4.25;1.05;;;;;;;23.77;40.50;98178.88;15284390;19;20014;-46
2023/06/13 10:41:40;;;;;;;2.65;0.93;;;;;;;23.96;38.72;98177.50;15283303;19;20019;-47
2023/06/13 10:47:15;;;;;;;1.83;1.00;;;;;;;24.23;39.96;98171.25;15278334;19;20021;-44
2023/06/13 10:52:39;;;;;;;6.10;1.00;;;;;;;24.24;40.25;98164.66;15284436;19;20382;-49
2023/06/13 10:58:06;;;;;;;5.25;1.02;;;;;;;24.39;40.22;98157.66;15277608;19;20024;-44
2023/06/13 11:03:34;;;;;;;3.40;1.02;;;;;;;24.41;39.42;98144.44;15284105;19;20026;-49
2023/06/13 11:09:24;;;;;;;1.20;0.80;;;;;;;24.50;38.46;98150.31;15279753;19;20055;-46
2023/06/13 11:14:49;;;;;;;2.72;0.98;;;;;;;24.53;38.15;98141.56;15285328;19;20010;-46
2023/06/13 11:20:38;;;;;;;1.27;0.90;;;;;;;24.61;40.03;98139.16;15274229;19;20011;-44
2023/06/13 11:26:04;;;;;;;1.85;0.90;;;;;;;24.52;38.80;98137.13;15280373;19;20043;-44
2023/06/13 11:31:30;;;;;;;1.63;0.90;;;;;;;24.17;40.42;98133.72;15277346;19;20014;-45
2023/06/13 11:37:07;;;;;;;2.88;1.10;;;;;;;24.18;39.90;98135.38;15279977;19;20015;-44
2023/06/13 11:42:33;;;;;;;2.30;1.10;;;;;;;24.26;39.82;98123.09;15282607;19;20027;-44
2023/06/13 11:47:59;;;;;;;3.70;1.00;;;;;;;24.02;39.14;98117.88;15279951;19;20073;-43
2023/06/13 11:53:27;;;;;;;4.30;1.10;;;;;;;23.87;40.55;98112.16;15276319;19;20011;-46
2023/06/13 11:58:52;;;;;;;2.58;1.15;;;;;;;23.44;40.02;98117.38;15277323;19;20504;-46
2023/06/13 12:04:24;;;;;;;3.25;0.90;;;;;;;23.78;41.11;98104.34;15274091;19;20023;-44
2023/06/13 12:09:51;;;;;;;2.63;1.10;;;;;;;24.15;39.66;98098.22;15278938;19;20018;-46
2023/06/13 12:15:17;;;;;;;5.25;1.15;;;;;;;24.21;39.21;98090.84;15279941;19;20014;-44
2023/06/13 12:20:53;;;;;;;1.55;0.93;;;;;;;24.20;39.93;98088.34;15277897;19;20010;-45
2023/06/13 12:26:21;;;;;;;3.42;1.00;;;;;;;24.39;39.53;98086.06;15271940;19;20024;-47
2023/06/13 12:31:47;;;;;;;2.22;1.13;;;;;;;24.38;40.44;98085.22;15280401;19;20014;-44
2023/06/13 12:37:14;;;;;;;2.15;1.10;;;;;;;24.58;39.20;98073.59;15270320;19;20020;-45
2023/06/13 12:42:43;;;;;;;2.75;1.10;;;;;;;24.34;39.99;98072.25;15279774;19;20077;-44
2023/06/13 12:48:09;;;;;;;3.72;1.10;;;;;;;24.56;39.26;98070.25;15273331;19;20097;-45
2023/06/13 12:53:34;;;;;;;3.20;1.10;;;;;;;24.62;38.34;98058.22;15278459;19;20010;-44
2023/06/13 12:59:06;;;;;;;4.15;1.10;;;;;;;25.19;38.00;98052.28;15266574;19;20708;-46
2023/06/13 13:04:32;;;;;;;3.60;1.05;;;;;;;25.68;36.89;98035.47;15277636;19;20018;-48
2023/06/13 13:09:56;;;;;;;1.92;0.90;;;;;;;26.14;36.97;98043.13;15275270;19;20014;-46
2023/06/13 13:15:24;;;;;;;3.65;1.00;;;;;;;25.24;37.60;98041.31;15277963;19;20106;-45
2023/06/13 13:20:51;;;;;;;3.85;1.10;;;;;;;25.35;37.58;98036.66;15274533;19;20482;-46
2023/06/13 13:26:15;;;;;;;1.00;0.90;;;;;;;25.17;37.48;98025.00;15277497;19;20087;-45
2023/06/13 13:31:43;;;;;;;6.32;1.10;;;;;;;25.13;37.17;98032.13;15271007;19;20021;-44
2023/06/13 13:37:08;;;;;;;3.38;1.10;;;;;;;25.11;36.88;98020.53;15274541;19;20014;-44
2023/06/13 13:42:36;;;;;;;2.38;1.02;;;;;;;24.87;37.91;98042.97;15278067;19;20032;-45
2023/06/13 13:48:05;;;;;;;4.75;1.02;;;;;;;25.64;38.26;98017.81;15277518;19;20027;-46
2023/06/13 13:53:30;;;;;;;2.22;1.10;;;;;;;26.02;37.12;98011.28;15288109;19;20018;-44
2023/06/13 13:58:55;;;;;;;2.63;1.00;;;;;;;26.21;37.66;98008.88;15285191;19;20081;-45
2023/06/13 14:04:22;;;;;;;2.42;1.00;;;;;;;26.22;37.05;98013.31;15286965;19;20082;-46
2023/06/13 14:09:46;;;;;;;2.55;1.10;;;;;;;25.72;36.51;98002.66;15285402;19;20014;-45
2023/06/13 14:15:12;;;;;;;0.95;0.90;;;;;;;25.11;37.44;98014.22;15287955;19;20010;-44
2023/06/13 14:20:39;;;;;;;1.73;1.00;;;;;;;24.72;38.70;98005.13;15300452;19;20228;-45
2023/06/13 14:26:05;;;;;;;3.10;1.20;;;;;;;24.67;39.04;97998.72;15326254;19;20033;-44
2023/06/13 14:31:32;;;;;;;2.70;1.13;;;;;;;24.64;38.06;97993.78;15311971;19;20007;-45
2023/06/13 14:37:00;;;;;;;2.95;1.15;;;;;;;24.50;39.08;97999.72;15285152;19;20019;-45
2023/06/13 14:42:24;;;;;;;3.25;0.90;;;;;;;24.45;39.18;98006.03;15283458;19;20050;-46
2023/06/13 14:47:49;;;;;;;3.20;1.08;;;;;;;24.47;39.91;97998.31;15282584;19;20006;-47
2023/06/13 14:53:17;;;;;;;2.42;1.15;;;;;;;24.35;39.52;97994.06;15288662;19;20018;-45
2023/06/13 14:58:42;;;;;;;2.72;1.50;;;;;;;24.30;40.29;97995.69;15280823;19;20022;-45
2023/06/13 15:04:14;;;;;;;3.70;1.13;;;;;;;24.38;40.12;97982.53;15277668;19;20022;-45
2023/06/13 15:09:44;;;;;;;6.63;1.77;;;;;;;24.47;40.39;97979.03;15282316;19;20013;-45
2023/06/13 15:15:10;;;;;;;;;;;;;;;24.46;40.03;97982.06;15277706;19;20026;-45
2023/06/13 15:20:34;;;;;;;1.10;1.00;;;;;;;24.39;40.00;97978.72;15280518;19;19915;-45
2023/06/13 15:26:02;;;;;;;3.55;1.00;;;;;;;24.34;40.60;97985.00;15280074;19;20014;-45
2023/06/13 15:31:26;;;;;;;0.95;0.80;;;;;;;24.43;40.44;97977.91;15280510;19;20475;-47
2023/06/13 15:36:51;;;;;;;5.15;0.90;;;;;;;24.69;39.48;97980.06;15274153;19;20046;-46
2023/06/13 15:42:19;;;;;;;2.53;1.00;;;;;;;24.78;38.61;97975.69;15276599;19;20028;-45
2023/06/13 15:47:47;;;;;;;3.83;0.90;;;;;;;24.75;39.57;97984.53;15272988;19;20018;-46
2023/06/13 15:53:13;;;;;;;1.20;0.90;;;;;;;24.76;39.41;97981.50;15281277;19;20060;-46
2023/06/13 15:58:41;;;;;;;1.60;0.85;;;;;;;24.96;38.42;97977.19;15277338;19;20015;-47
2023/06/13 16:04:07;;;;;;;1.80;0.90;;;;;;;25.05;39.12;97981.09;15283966;19;20086;-47
2023/06/13 16:09:33;;;;;;;3.20;1.00;;;;;;;24.93;39.23;97983.25;15268167;19;20363;-47
2023/06/13 16:15:01;;;;;;;5.22;0.90;;;;;;;24.71;40.09;97988.88;15281651;19;20038;-48
2023/06/13 16:20:27;;;;;;;3.80;1.00;;;;;;;24.52;39.85;97988.44;15276228;19;20018;-47
2023/06/13 16:25:52;;;;;;;3.83;1.00;;;;;;;24.31;40.08;97994.59;15279992;19;20025;-46
2023/06/13 16:31:19;;;;;;;4.07;0.95;;;;;;;24.12;39.96;97998.81;15281084;19;20018;-48
2023/06/13 16:36:44;;;;;;;4.63;1.10;;;;;;;24.04;41.41;97996.56;15276084;19;20018;-46
2023/06/13 16:42:09;;;;;;;6.10;1.17;;;;;;;24.04;40.99;97999.31;15272570;19;20018;-47
2023/06/13 16:47:37;;;;;;;4.20;1.00;;;;;;;24.21;41.80;97994.50;15277460;19;20558;-44
2023/06/13 16:53:02;;;;;;;4.47;0.98;;;;;;;24.62;40.87;98005.88;15277045;19;20035;-48
2023/06/13 16:58:27;;;;;;;3.05;1.00;;;;;;;24.41;39.53;98006.78;15275285;19;20017;-49
2023/06/13 17:04:01;;;;;;;4.90;1.00;;;;;;;24.25;38.79;98003.91;15279250;19;20017;-49
2023/06/13 17:09:27;;;;;;;1.90;0.90;;;;;;;24.70;38.79;98009.25;15276618;19;20029;-46
2023/06/13 17:14:52;;;;;;;2.92;1.02;;;;;;;25.11;38.67;97994.94;15276194;19;20503;-47
2023/06/13 17:20:20;;;;;;;3.15;0.90;;;;;;;25.37;37.40;97987.59;15281051;19;20077;-46
2023/06/13 17:25:45;;;;;;;3.72;0.90;;;;;;;25.47;37.62;97990.44;15287824;19;20090;-49
2023/06/13 17:31:10;;;;;;;4.65;0.80;;;;;;;25.03;38.02;97987.97;15295732;19;20086;-51
2023/06/13 17:36:37;;;;;;;2.38;1.00;;;;;;;24.96;38.89;97987.41;15289929;19;20467;-47
2023/06/13 17:42:03;;;;;;;5.20;0.80;;;;;;;25.10;39.50;97994.09;15291632;19;20014;-45
2023/06/13 17:47:36;;;;;;;1.88;0.85;;;;;;;25.27;39.16;97999.44;15279125;19;20014;-81
2023/06/13 17:53:03;;;;;;;4.30;1.00;;;;;;;25.31;39.79;97996.97;15312295;19;20028;-80
2023/06/13 17:58:29;;;;;;;4.13;1.10;;;;;;;25.04;38.86;98004.28;15322403;19;20536;-80
2023/06/13 18:03:56;;;;;;;4.43;0.90;;;;;;;24.83;39.05;98005.22;15258569;19;20594;-80
2023/06/13 18:09:26;;;;;;;4.18;1.00;;;;;;;24.59;39.38;98014.66;14772860;19;5013060;-79
2023/06/13 18:14:51;;;;;;;2.45;1.00;;;;;;;24.35;39.53;98003.16;15313014;19;20483;-78
2023/06/13 18:20:16;;;;;;;2.33;1.00;;;;;;;24.16;39.69;98010.97;15305001;19;20468;-80
2023/06/13 18:25:44;;;;;;;2.20;1.00;;;;;;;23.92;39.80;98011.25;15311821;19;20106;-80
2023/06/13 18:31:09;;;;;;;2.28;1.00;;;;;;;23.66;39.42;98015.63;15303305;19;20034;-81
2023/06/13 18:36:36;;;;;;;3.00;0.90;;;;;;;23.28;40.19;98007.19;15308262;19;20014;-82
2023/06/13 18:42:03;;;;;;;3.35;1.13;;;;;;;22.72;42.87;98016.25;15301891;19;20432;-79
2023/06/13 18:47:28;;;;;;;3.45;1.00;;;;;;;22.32;44.41;98025.44;15306900;19;20020;-79
2023/06/13 18:52:55;;;;;;;3.90;1.13;;;;;;;22.12;44.68;98029.50;15297079;19;20016;-81
2023/06/13 18:58:22;;;;;;;5.25;1.20;;;;;;;21.70;47.21;98040.72;15304629;19;20031;-79
2023/06/13 19:03:47;;;;;;;8.32;1.30;;;;;;;21.33;47.13;98043.78;15292943;19;20017;-79
2023/06/13 19:09:16;;;;;;;3.90;1.20;;;;;;;20.96;49.30;98049.53;15299160;19;20039;-80
2023/06/13 19:14:43;;;;;;;3.67;1.20;;;;;;;20.63;50.59;98052.56;15295239;19;20029;-80
2023/06/13 19:20:11;;;;;;;3.97;1.13;;;;;;;20.37;51.97;98064.75;15294448;19;20018;-77
2023/06/13 19:25:35;;;;;;;5.22;1.20;;;;;;;20.06;52.95;98074.88;15292844;19;20017;-79
2023/06/13 19:31:04;;;;;;;3.80;1.25;;;;;;;19.75;56.00;98078.63;15296609;19;20082;-78
2023/06/13 19:36:29;;;;;;;2.88;1.20;;;;;;;19.52;55.57;98082.88;15285953;19;20349;-78
2023/06/13 19:41:55;;;;;;;3.70;1.33;;;;;;;19.24;58.66;98090.53;15286431;19;20053;-77
2023/06/13 19:47:22;;;;;;;4.38;1.30;;;;;;;18.97;60.74;98098.16;15288949;19;20796;-77
2023/06/13 19:52:54;;;;;;;4.05;1.20;;;;;;;18.72;63.86;98112.59;15263772;19;20023;-39
2023/06/13 19:58:20;;;;;;;1.90;1.10;;;;;;;18.55;65.72;98114.19;15272626;19;20021;-38
2023/06/13 20:03:47;;;;;;;4.60;1.20;;;;;;;18.39;66.25;98126.47;15278438;19;20075;-38
2023/06/13 20:09:12;;;;;;;6.35;1.30;;;;;;;18.17;69.88;98130.34;15271839;19;20062;-38
2023/06/13 20:14:37;;;;;;;3.88;1.20;;;;;;;17.99;71.10;98133.78;15280320;19;20025;-39
2023/06/13 20:20:09;;;;;;;1.60;0.98;;;;;;;17.81;76.23;98147.25;15276129;19;20089;-39
2023/06/13 20:25:35;;;;;;;4.90;1.20;;;;;;;17.64;76.18;98141.44;15279994;19;20057;-39
2023/06/13 20:31:00;;;;;;;3.58;1.20;;;;;;;17.48;81.36;98140.84;15274063;19;20086;-38
2023/06/13 20:36:27;;;;;;;2.92;1.25;;;;;;;17.30;83.52;98151.59;15281828;19;20979;-39
2023/06/13 20:41:52;;;;;;;4.72;1.30;;;;;;;17.14;90.39;98153.69;15274496;19;20022;-39
2023/06/13 20:47:19;;;;;;;4.65;1.35;;;;;;;17.00;90.13;98179.22;15281194;19;20085;-38
2023/06/13 20:52:47;;;;;;;2.03;1.30;;;;;;;16.85;98.78;98177.53;15280904;19;20371;-38
2023/06/13 20:58:15;;;;;;;6.03;1.35;;;;;;;16.68;98.25;98181.69;15291697;19;20014;-38
2023/06/13 21:03:41;;;;;;;3.92;1.30;;;;;;;16.58;100.00;98187.53;15291531;19;20025;-38
2023/06/13 21:09:10;;;;;;;2.58;1.30;;;;;;;16.46;100.00;98195.44;15286088;19;20605;-40
2023/06/13 21:14:36;;;;;;;5.53;1.50;;;;;;;16.35;100.00;98204.19;15294655;19;20019;-40
2023/06/13 21:20:01;;;;;;;3.50;1.45;;;;;;;16.37;100.00;98196.69;15281626;19;20375;-38
2023/06/13 21:25:35;;;;;;;3.15;1.13;;;;;;;16.35;100.00;98201.47;15291962;19;20041;-37
2023/06/13 21:31:00;;;;;;;2.00;1.00;;;;;;;16.30;100.00;98197.47;15284485;19;20022;-38
2023/06/13 21:36:24;;;;;;;3.47;0.93;;;;;;;16.27;100.00;98197.91;15293878;19;20088;-38
2023/06/13 21:41:51;;;;;;;4.13;1.20;;;;;;;16.16;100.00;98209.38;15287928;19;20081;-38
2023/06/13 21:47:16;;;;;;;3.60;1.00;;;;;;;16.05;100.00;98215.38;15293618;19;20014;-38
2023/06/13 21:52:41;;;;;;;1.55;1.08;;;;;;;15.91;100.00;98207.16;15293692;19;20015;-38
2023/06/13 21:58:13;;;;;;;1.48;1.10;;;;;;;15.77;100.00;98208.91;15284487;19;20457;-38
2023/06/13 22:03:38;;;;;;;2.20;1.10;;;;;;;15.66;100.00;98213.03;15179141;19;2004721;-37
2023/06/13 22:09:02;;;;;;;1.85;1.05;;;;;;;15.52;100.00;98217.53;15286476;19;20029;-39
2023/06/13 22:14:29;;;;;;;3.90;1.20;;;;;;;15.35;100.00;98214.28;15293279;19;20018;-37
2023/06/13 22:19:55;;;;;;;1.50;1.10;;;;;;;15.25;100.00;98220.06;15287102;19;20769;-38
2023/06/13 22:25:20;;;;;;;2.33;1.13;;;;;;;15.10;100.00;98222.88;15292920;19;20410;-39
2023/06/13 22:30:47;;;;;;;3.80;1.20;;;;;;;14.99;100.00;98228.81;15281384;19;20018;-38
2023/06/13 22:36:13;;;;;;;4.07;1.30;;;;;;;14.88;100.00;98227.44;15283513;19;20022;-38
2023/06/13 22:41:37;;;;;;;5.35;1.27;;;;;;;14.72;100.00;98238.53;15284810;19;20615;-38
2023/06/13 22:47:05;;;;;;;1.33;1.00;;;;;;;14.61;100.00;98245.28;15288798;19;20041;-38
2023/06/13 22:52:31;;;;;;;2.25;1.02;;;;;;;14.49;100.00;98245.78;15291005;19;20636;-39
2023/06/13 22:58:02;;;;;;;1.65;1.20;;;;;;;14.37;100.00;98247.31;15285904;19;20363;-39
2023/06/13 23:03:29;;;;;;;3.90;1.17;;;;;;;14.26;100.00;98248.63;15281925;19;20605;-37
2023/06/13 23:08:54;;;;;;;2.50;1.23;;;;;;;14.16;100.00;98248.09;15278895;19;20014;-38
2023/06/13 23:14:19;;;;;;;3.92;1.10;;;;;;;14.05;100.00;98244.00;15288871;19;20109;-39
2023/06/13 23:19:53;;;;;;;2.25;1.20;;;;;;;13.96;100.00;98240.56;15282704;19;20090;-39
2023/06/13 23:25:21;;;;;;;2.33;1.15;;;;;;;13.92;100.00;98238.41;15286645;19;20006;-38
2023/06/13 23:30:45;;;;;;;3.25;1.20;;;;;;;13.87;100.00;98236.25;15282452;19;20006;-38
2023/06/13 23:36:14;;;;;;;3.35;1.10;;;;;;;13.91;100.00;98234.84;15287000;19;20020;-37
2023/06/13 23:41:38;;;;;;;4.47;1.00;;;;;;;13.84;100.00;98229.34;15274619;19;20016;-37
2023/06/13 23:47:04;;;;;;;2.30;1.20;;;;;;;13.81;100.00;98237.84;15286389;19;20484;-38
2023/06/13 23:52:31;;;;;;;1.77;1.20;;;;;;;13.70;100.00;98236.44;15270364;19;20030;-42
2023/06/13 23:57:57;;;;;;;1.58;1.25;;;;;;;13.58;100.00;98237.94;15283716;19;20018;-43
